sensor_id;sensor_type;location;lat;lon;timestamp;P1;durP1;ratioP1;P2;durP2;ratioP2
10491;SDS011;5293;51.464;-2.566;2024-01-25T00:01:08;26.03;;;7.30;;
10491;SDS011;5293;51.464;-2.566;2024-01-25T00:03:33;23.40;;;7.10;;
10491;SDS011;5293;51.464;-2.566;2024-01-25T00:05:59;28.47;;;7.33;;
10491;SDS011;5293;51.464;-2.566;2024-01-25T00:08:25;24.50;;;7.30;;
10491;SDS011;5293;51.464;-2.566;2024-01-25T00:10:50;18.60;;;5.67;;
10491;SDS011;5293;51.464;-2.566;2024-01-25T00:13:16;21.83;;;6.23;;
10491;SDS011;5293;51.464;-2.566;2024-01-25T00:15:42;37.10;;;6.77;;
10491;SDS011;5293;51.464;-2.566;2024-01-25T00:18:10;26.77;;;7.00;;
10491;SDS011;5293;51.464;-2.566;2024-01-25T00:20:35;25.17;;;6.87;;
10491;SDS011;5293;51.464;-2.566;2024-01-25T00:23:01;27.27;;;6.83;;
10491;SDS011;5293;51.464;-2.566;2024-01-25T00:25:27;17.77;;;6.13;;
10491;SDS011;5293;51.464;-2.566;2024-01-25T00:27:53;24.93;;;6.77;;
10491;SDS011;5293;51.464;-2.566;2024-01-25T00:30:18;29.47;;;6.87;;
10491;SDS011;5293;51.464;-2.566;2024-01-25T00:32:44;29.73;;;6.77;;
10491;SDS011;5293;51.464;-2.566;2024-01-25T00:35:10;32.63;;;7.83;;
10491;SDS011;5293;51.464;-2.566;2024-01-25T00:37:38;21.63;;;6.30;;
10491;SDS011;5293;51.464;-2.566;2024-01-25T00:40:05;32.33;;;8.13;;
10491;SDS011;5293;51.464;-2.566;2024-01-25T00:42:34;33.50;;;6.93;;
10491;SDS011;5293;51.464;-2.566;2024-01-25T00:45:06;30.60;;;7.47;;
10491;SDS011;5293;51.464;-2.566;2024-01-25T00:47:32;24.40;;;6.60;;
10491;SDS011;5293;51.464;-2.566;2024-01-25T00:49:58;26.57;;;7.43;;
10491;SDS011;5293;51.464;-2.566;2024-01-25T00:52:24;33.90;;;7.03;;
10491;SDS011;5293;51.464;-2.566;2024-01-25T00:54:50;29.70;;;6.87;;
10491;SDS011;5293;51.464;-2.566;2024-01-25T00:57:16;31.23;;;5.83;;
10491;SDS011;5293;51.464;-2.566;2024-01-25T00:59:42;22.07;;;6.87;;
10491;SDS011;5293;51.464;-2.566;2024-01-25T01:02:11;36.37;;;7.13;;
10491;SDS011;5293;51.464;-2.566;2024-01-25T01:04:38;27.87;;;6.80;;
10491;SDS011;5293;51.464;-2.566;2024-01-25T01:07:04;25.00;;;6.63;;
10491;SDS011;5293;51.464;-2.566;2024-01-25T01:09:30;24.03;;;6.23;;
10491;SDS011;5293;51.464;-2.566;2024-01-25T01:11:56;28.50;;;6.83;;
10491;SDS011;5293;51.464;-2.566;2024-01-25T01:14:22;31.10;;;6.80;;
10491;SDS011;5293;51.464;-2.566;2024-01-25T01:16:47;25.20;;;6.43;;
10491;SDS011;5293;51.464;-2.566;2024-01-25T01:19:15;21.07;;;5.70;;
10491;SDS011;5293;51.464;-2.566;2024-01-25T01:21:41;38.47;;;7.13;;
10491;SDS011;5293;51.464;-2.566;2024-01-25T01:24:09;23.73;;;5.97;;
10491;SDS011;5293;51.464;-2.566;2024-01-25T01:26:35;31.73;;;7.07;;
10491;SDS011;5293;51.464;-2.566;2024-01-25T01:29:01;19.47;;;5.93;;
10491;SDS011;5293;51.464;-2.566;2024-01-25T01:31:27;24.03;;;6.30;;
10491;SDS011;5293;51.464;-2.566;2024-01-25T01:33:53;21.57;;;6.00;;
10491;SDS011;5293;51.464;-2.566;2024-01-25T01:36:19;26.87;;;5.97;;
10491;SDS011;5293;51.464;-2.566;2024-01-25T01:38:45;27.77;;;6.07;;
10491;SDS011;5293;51.464;-2.566;2024-01-25T01:41:10;24.13;;;6.67;;
10491;SDS011;5293;51.464;-2.566;2024-01-25T01:43:37;25.73;;;6.50;;
10491;SDS011;5293;51.464;-2.566;2024-01-25T01:46:09;24.57;;;6.20;;
10491;SDS011;5293;51.464;-2.566;2024-01-25T01:48:37;23.03;;;5.90;;
10491;SDS011;5293;51.464;-2.566;2024-01-25T01:51:04;33.17;;;5.97;;
10491;SDS011;5293;51.464;-2.566;2024-01-25T01:53:30;27.37;;;6.70;;
10491;SDS011;5293;51.464;-2.566;2024-01-25T01:55:57;27.37;;;6.33;;
10491;SDS011;5293;51.464;-2.566;2024-01-25T01:58:24;25.77;;;6.00;;
10491;SDS011;5293;51.464;-2.566;2024-01-25T02:00:53;22.77;;;6.27;;
10491;SDS011;5293;51.464;-2.566;2024-01-25T02:03:20;21.63;;;5.53;;
10491;SDS011;5293;51.464;-2.566;2024-01-25T02:05:46;23.40;;;6.40;;
10491;SDS011;5293;51.464;-2.566;2024-01-25T02:08:12;23.67;;;5.50;;
10491;SDS011;5293;51.464;-2.566;2024-01-25T02:10:39;30.90;;;6.00;;
10491;SDS011;5293;51.464;-2.566;2024-01-25T02:13:04;20.43;;;5.13;;
10491;SDS011;5293;51.464;-2.566;2024-01-25T02:15:30;19.13;;;4.77;;
10491;SDS011;5293;51.464;-2.566;2024-01-25T02:17:56;36.63;;;6.63;;
10491;SDS011;5293;51.464;-2.566;2024-01-25T02:20:21;27.40;;;5.43;;
10491;SDS011;5293;51.464;-2.566;2024-01-25T02:22:47;24.83;;;6.63;;
10491;SDS011;5293;51.464;-2.566;2024-01-25T02:25:13;32.50;;;6.43;;
10491;SDS011;5293;51.464;-2.566;2024-01-25T02:27:38;28.20;;;5.47;;
10491;SDS011;5293;51.464;-2.566;2024-01-25T02:30:08;25.73;;;6.00;;
10491;SDS011;5293;51.464;-2.566;2024-01-25T02:32:34;23.50;;;6.23;;
10491;SDS011;5293;51.464;-2.566;2024-01-25T02:34:59;28.47;;;6.80;;
10491;SDS011;5293;51.464;-2.566;2024-01-25T02:37:25;27.30;;;5.43;;
10491;SDS011;5293;51.464;-2.566;2024-01-25T02:39:51;23.00;;;5.20;;
10491;SDS011;5293;51.464;-2.566;2024-01-25T02:42:18;25.50;;;5.20;;
10491;SDS011;5293;51.464;-2.566;2024-01-25T02:44:43;39.37;;;7.20;;
10491;SDS011;5293;51.464;-2.566;2024-01-25T02:47:09;27.93;;;5.33;;
10491;SDS011;5293;51.464;-2.566;2024-01-25T02:49:35;16.37;;;5.23;;
10491;SDS011;5293;51.464;-2.566;2024-01-25T02:52:00;24.60;;;7.17;;
10491;SDS011;5293;51.464;-2.566;2024-01-25T02:54:26;22.57;;;6.07;;
10491;SDS011;5293;51.464;-2.566;2024-01-25T02:56:52;21.17;;;5.23;;
10491;SDS011;5293;51.464;-2.566;2024-01-25T02:59:18;24.70;;;6.50;;
10491;SDS011;5293;51.464;-2.566;2024-01-25T03:01:44;29.40;;;5.80;;
10491;SDS011;5293;51.464;-2.566;2024-01-25T03:04:10;21.17;;;5.60;;
10491;SDS011;5293;51.464;-2.566;2024-01-25T03:06:36;24.27;;;5.27;;
10491;SDS011;5293;51.464;-2.566;2024-01-25T03:09:02;31.00;;;6.00;;
10491;SDS011;5293;51.464;-2.566;2024-01-25T03:11:29;26.03;;;6.03;;
10491;SDS011;5293;51.464;-2.566;2024-01-25T03:13:55;26.43;;;6.20;;
10491;SDS011;5293;51.464;-2.566;2024-01-25T03:16:21;30.50;;;7.00;;
10491;SDS011;5293;51.464;-2.566;2024-01-25T03:18:47;22.77;;;5.57;;
10491;SDS011;5293;51.464;-2.566;2024-01-25T03:21:13;28.57;;;5.90;;
10491;SDS011;5293;51.464;-2.566;2024-01-25T03:23:39;21.80;;;5.60;;
10491;SDS011;5293;51.464;-2.566;2024-01-25T03:26:04;26.53;;;6.13;;
10491;SDS011;5293;51.464;-2.566;2024-01-25T03:28:30;24.40;;;5.50;;
10491;SDS011;5293;51.464;-2.566;2024-01-25T03:30:56;28.43;;;6.30;;
10491;SDS011;5293;51.464;-2.566;2024-01-25T03:33:22;24.43;;;6.00;;
10491;SDS011;5293;51.464;-2.566;2024-01-25T03:35:48;27.20;;;6.20;;
10491;SDS011;5293;51.464;-2.566;2024-01-25T03:38:13;30.10;;;5.97;;
10491;SDS011;5293;51.464;-2.566;2024-01-25T03:40:39;27.37;;;6.43;;
10491;SDS011;5293;51.464;-2.566;2024-01-25T03:43:05;29.00;;;5.50;;
10491;SDS011;5293;51.464;-2.566;2024-01-25T03:45:30;29.07;;;6.27;;
10491;SDS011;5293;51.464;-2.566;2024-01-25T03:47:57;25.50;;;6.13;;
10491;SDS011;5293;51.464;-2.566;2024-01-25T03:50:23;25.00;;;5.63;;
10491;SDS011;5293;51.464;-2.566;2024-01-25T03:52:49;26.37;;;5.77;;
10491;SDS011;5293;51.464;-2.566;2024-01-25T03:55:14;18.67;;;5.70;;
10491;SDS011;5293;51.464;-2.566;2024-01-25T03:57:40;26.80;;;5.57;;
10491;SDS011;5293;51.464;-2.566;2024-01-25T04:00:07;27.73;;;6.13;;
10491;SDS011;5293;51.464;-2.566;2024-01-25T04:02:34;29.00;;;6.83;;
10491;SDS011;5293;51.464;-2.566;2024-01-25T04:04:59;19.00;;;5.67;;
10491;SDS011;5293;51.464;-2.566;2024-01-25T04:07:25;20.33;;;5.33;;
10491;SDS011;5293;51.464;-2.566;2024-01-25T04:09:51;26.13;;;6.13;;
10491;SDS011;5293;51.464;-2.566;2024-01-25T04:12:16;23.77;;;6.67;;
10491;SDS011;5293;51.464;-2.566;2024-01-25T04:14:42;29.80;;;6.33;;
10491;SDS011;5293;51.464;-2.566;2024-01-25T04:17:08;31.93;;;5.67;;
10491;SDS011;5293;51.464;-2.566;2024-01-25T04:19:35;22.33;;;5.57;;
10491;SDS011;5293;51.464;-2.566;2024-01-25T04:22:01;22.93;;;5.63;;
10491;SDS011;5293;51.464;-2.566;2024-01-25T04:24:26;25.10;;;5.80;;
10491;SDS011;5293;51.464;-2.566;2024-01-25T04:26:52;25.67;;;5.73;;
10491;SDS011;5293;51.464;-2.566;2024-01-25T04:29:18;25.97;;;5.87;;
10491;SDS011;5293;51.464;-2.566;2024-01-25T04:31:44;27.07;;;5.73;;
10491;SDS011;5293;51.464;-2.566;2024-01-25T04:34:10;27.27;;;5.97;;
10491;SDS011;5293;51.464;-2.566;2024-01-25T04:36:38;25.03;;;5.80;;
10491;SDS011;5293;51.464;-2.566;2024-01-25T04:39:03;21.57;;;5.43;;
10491;SDS011;5293;51.464;-2.566;2024-01-25T04:41:29;16.33;;;4.30;;
10491;SDS011;5293;51.464;-2.566;2024-01-25T04:43:55;16.60;;;4.93;;
10491;SDS011;5293;51.464;-2.566;2024-01-25T04:46:20;17.77;;;5.30;;
10491;SDS011;5293;51.464;-2.566;2024-01-25T04:48:46;19.27;;;4.37;;
10491;SDS011;5293;51.464;-2.566;2024-01-25T04:51:18;17.93;;;4.67;;
10491;SDS011;5293;51.464;-2.566;2024-01-25T04:53:47;16.87;;;4.83;;
10491;SDS011;5293;51.464;-2.566;2024-01-25T04:56:13;15.90;;;4.77;;
10491;SDS011;5293;51.464;-2.566;2024-01-25T04:58:39;20.77;;;4.63;;
10491;SDS011;5293;51.464;-2.566;2024-01-25T05:01:04;19.80;;;5.07;;
10491;SDS011;5293;51.464;-2.566;2024-01-25T05:03:32;23.03;;;4.50;;
10491;SDS011;5293;51.464;-2.566;2024-01-25T05:05:58;23.50;;;5.40;;
10491;SDS011;5293;51.464;-2.566;2024-01-25T05:08:24;14.63;;;4.43;;
10491;SDS011;5293;51.464;-2.566;2024-01-25T05:10:49;14.10;;;4.27;;
10491;SDS011;5293;51.464;-2.566;2024-01-25T05:13:15;19.13;;;4.90;;
10491;SDS011;5293;51.464;-2.566;2024-01-25T05:15:41;12.20;;;3.43;;
10491;SDS011;5293;51.464;-2.566;2024-01-25T05:18:06;8.70;;;3.13;;
10491;SDS011;5293;51.464;-2.566;2024-01-25T05:20:32;7.43;;;2.87;;
10491;SDS011;5293;51.464;-2.566;2024-01-25T05:22:59;4.33;;;2.20;;
10491;SDS011;5293;51.464;-2.566;2024-01-25T05:25:26;2.93;;;1.87;;
10491;SDS011;5293;51.464;-2.566;2024-01-25T05:27:53;2.50;;;2.10;;
10491;SDS011;5293;51.464;-2.566;2024-01-25T05:30:19;2.93;;;2.10;;
10491;SDS011;5293;51.464;-2.566;2024-01-25T05:32:45;2.93;;;1.83;;
10491;SDS011;5293;51.464;-2.566;2024-01-25T05:35:13;3.10;;;1.93;;
10491;SDS011;5293;51.464;-2.566;2024-01-25T05:37:39;6.87;;;5.23;;
10491;SDS011;5293;51.464;-2.566;2024-01-25T05:40:05;2.70;;;2.37;;
10491;SDS011;5293;51.464;-2.566;2024-01-25T05:42:31;2.07;;;1.97;;
10491;SDS011;5293;51.464;-2.566;2024-01-25T05:44:57;2.00;;;1.83;;
10491;SDS011;5293;51.464;-2.566;2024-01-25T05:47:23;2.00;;;1.90;;
10491;SDS011;5293;51.464;-2.566;2024-01-25T05:49:48;1.83;;;1.73;;
10491;SDS011;5293;51.464;-2.566;2024-01-25T05:52:14;2.97;;;1.80;;
10491;SDS011;5293;51.464;-2.566;2024-01-25T05:54:40;2.83;;;2.10;;
10491;SDS011;5293;51.464;-2.566;2024-01-25T05:57:06;2.53;;;1.83;;
10491;SDS011;5293;51.464;-2.566;2024-01-25T05:59:31;1.87;;;1.77;;
10491;SDS011;5293;51.464;-2.566;2024-01-25T06:01:57;1.90;;;1.80;;
10491;SDS011;5293;51.464;-2.566;2024-01-25T06:04:22;2.80;;;1.97;;
10491;SDS011;5293;51.464;-2.566;2024-01-25T06:06:48;2.53;;;2.10;;
10491;SDS011;5293;51.464;-2.566;2024-01-25T06:09:14;2.43;;;2.23;;
10491;SDS011;5293;51.464;-2.566;2024-01-25T06:11:40;3.13;;;1.70;;
10491;SDS011;5293;51.464;-2.566;2024-01-25T06:14:06;2.23;;;2.00;;
10491;SDS011;5293;51.464;-2.566;2024-01-25T06:16:32;1.70;;;1.60;;
10491;SDS011;5293;51.464;-2.566;2024-01-25T06:18:58;3.00;;;1.90;;
10491;SDS011;5293;51.464;-2.566;2024-01-25T06:21:25;2.07;;;1.87;;
10491;SDS011;5293;51.464;-2.566;2024-01-25T06:23:51;2.20;;;2.00;;
10491;SDS011;5293;51.464;-2.566;2024-01-25T06:26:16;3.37;;;2.07;;
10491;SDS011;5293;51.464;-2.566;2024-01-25T06:28:42;2.40;;;2.20;;
10491;SDS011;5293;51.464;-2.566;2024-01-25T06:31:07;2.20;;;2.10;;
10491;SDS011;5293;51.464;-2.566;2024-01-25T06:33:33;2.03;;;1.90;;
10491;SDS011;5293;51.464;-2.566;2024-01-25T06:35:59;2.30;;;2.10;;
10491;SDS011;5293;51.464;-2.566;2024-01-25T06:38:25;2.40;;;2.20;;
10491;SDS011;5293;51.464;-2.566;2024-01-25T06:40:50;3.33;;;2.13;;
10491;SDS011;5293;51.464;-2.566;2024-01-25T06:43:16;3.57;;;2.87;;
10491;SDS011;5293;51.464;-2.566;2024-01-25T06:45:42;3.63;;;3.03;;
10491;SDS011;5293;51.464;-2.566;2024-01-25T06:48:07;3.73;;;2.80;;
10491;SDS011;5293;51.464;-2.566;2024-01-25T06:50:36;2.70;;;2.50;;
10491;SDS011;5293;51.464;-2.566;2024-01-25T06:53:02;4.57;;;3.23;;
10491;SDS011;5293;51.464;-2.566;2024-01-25T06:55:28;4.57;;;3.67;;
10491;SDS011;5293;51.464;-2.566;2024-01-25T06:57:54;4.57;;;3.47;;
10491;SDS011;5293;51.464;-2.566;2024-01-25T07:00:19;4.93;;;3.90;;
10491;SDS011;5293;51.464;-2.566;2024-01-25T07:02:46;5.63;;;3.60;;
10491;SDS011;5293;51.464;-2.566;2024-01-25T07:05:12;5.23;;;4.10;;
10491;SDS011;5293;51.464;-2.566;2024-01-25T07:07:38;5.10;;;3.67;;
10491;SDS011;5293;51.464;-2.566;2024-01-25T07:10:05;6.60;;;3.73;;
10491;SDS011;5293;51.464;-2.566;2024-01-25T07:12:31;9.10;;;3.87;;
10491;SDS011;5293;51.464;-2.566;2024-01-25T07:14:57;6.47;;;3.33;;
10491;SDS011;5293;51.464;-2.566;2024-01-25T07:17:23;7.67;;;3.37;;
10491;SDS011;5293;51.464;-2.566;2024-01-25T07:19:48;9.60;;;3.67;;
10491;SDS011;5293;51.464;-2.566;2024-01-25T07:22:14;4.47;;;3.00;;
10491;SDS011;5293;51.464;-2.566;2024-01-25T07:24:42;3.33;;;3.03;;
10491;SDS011;5293;51.464;-2.566;2024-01-25T07:27:08;5.40;;;3.30;;
10491;SDS011;5293;51.464;-2.566;2024-01-25T07:29:35;4.77;;;3.43;;
10491;SDS011;5293;51.464;-2.566;2024-01-25T07:32:01;5.90;;;3.43;;
10491;SDS011;5293;51.464;-2.566;2024-01-25T07:34:28;4.37;;;3.67;;
10491;SDS011;5293;51.464;-2.566;2024-01-25T07:36:53;6.90;;;3.63;;
10491;SDS011;5293;51.464;-2.566;2024-01-25T07:39:19;8.20;;;3.83;;
10491;SDS011;5293;51.464;-2.566;2024-01-25T07:41:45;8.60;;;4.30;;
10491;SDS011;5293;51.464;-2.566;2024-01-25T07:44:10;7.97;;;3.47;;
10491;SDS011;5293;51.464;-2.566;2024-01-25T07:46:37;6.77;;;3.50;;
10491;SDS011;5293;51.464;-2.566;2024-01-25T07:49:03;10.87;;;4.03;;
10491;SDS011;5293;51.464;-2.566;2024-01-25T07:51:28;11.73;;;3.40;;
10491;SDS011;5293;51.464;-2.566;2024-01-25T07:53:54;8.00;;;4.13;;
10491;SDS011;5293;51.464;-2.566;2024-01-25T07:56:20;6.27;;;3.40;;
10491;SDS011;5293;51.464;-2.566;2024-01-25T07:58:47;8.67;;;3.47;;
10491;SDS011;5293;51.464;-2.566;2024-01-25T08:01:19;7.23;;;3.50;;
10491;SDS011;5293;51.464;-2.566;2024-01-25T08:03:45;6.93;;;4.30;;
10491;SDS011;5293;51.464;-2.566;2024-01-25T08:06:10;8.53;;;3.83;;
10491;SDS011;5293;51.464;-2.566;2024-01-25T08:08:36;8.60;;;3.80;;
10491;SDS011;5293;51.464;-2.566;2024-01-25T08:11:02;11.30;;;4.67;;
10491;SDS011;5293;51.464;-2.566;2024-01-25T08:13:29;6.93;;;3.60;;
10491;SDS011;5293;51.464;-2.566;2024-01-25T08:15:55;8.33;;;3.80;;
10491;SDS011;5293;51.464;-2.566;2024-01-25T08:18:21;10.87;;;4.10;;
10491;SDS011;5293;51.464;-2.566;2024-01-25T08:20:48;6.80;;;3.23;;
10491;SDS011;5293;51.464;-2.566;2024-01-25T08:23:14;6.67;;;3.33;;
10491;SDS011;5293;51.464;-2.566;2024-01-25T08:25:40;9.50;;;2.83;;
10491;SDS011;5293;51.464;-2.566;2024-01-25T08:28:06;12.27;;;3.73;;
10491;SDS011;5293;51.464;-2.566;2024-01-25T08:30:32;5.27;;;2.97;;
10491;SDS011;5293;51.464;-2.566;2024-01-25T08:32:57;9.17;;;3.57;;
10491;SDS011;5293;51.464;-2.566;2024-01-25T08:35:23;4.23;;;2.50;;
10491;SDS011;5293;51.464;-2.566;2024-01-25T08:37:49;8.13;;;2.73;;
10491;SDS011;5293;51.464;-2.566;2024-01-25T08:40:15;12.50;;;2.53;;
10491;SDS011;5293;51.464;-2.566;2024-01-25T08:42:41;8.47;;;3.07;;
10491;SDS011;5293;51.464;-2.566;2024-01-25T08:45:07;8.77;;;2.73;;
10491;SDS011;5293;51.464;-2.566;2024-01-25T08:47:37;6.40;;;2.10;;
10491;SDS011;5293;51.464;-2.566;2024-01-25T08:50:03;8.70;;;3.50;;
10491;SDS011;5293;51.464;-2.566;2024-01-25T08:52:30;9.00;;;2.93;;
10491;SDS011;5293;51.464;-2.566;2024-01-25T08:54:56;4.70;;;2.63;;
10491;SDS011;5293;51.464;-2.566;2024-01-25T08:57:22;8.30;;;2.50;;
10491;SDS011;5293;51.464;-2.566;2024-01-25T08:59:47;7.37;;;2.77;;
10491;SDS011;5293;51.464;-2.566;2024-01-25T09:02:13;4.67;;;2.10;;
10491;SDS011;5293;51.464;-2.566;2024-01-25T09:04:39;6.93;;;2.40;;
10491;SDS011;5293;51.464;-2.566;2024-01-25T09:07:08;5.63;;;2.27;;
10491;SDS011;5293;51.464;-2.566;2024-01-25T09:09:33;7.33;;;2.50;;
10491;SDS011;5293;51.464;-2.566;2024-01-25T09:11:59;7.83;;;2.23;;
10491;SDS011;5293;51.464;-2.566;2024-01-25T09:14:25;5.00;;;2.23;;
10491;SDS011;5293;51.464;-2.566;2024-01-25T09:16:51;5.47;;;2.30;;
10491;SDS011;5293;51.464;-2.566;2024-01-25T09:19:16;2.47;;;1.77;;
10491;SDS011;5293;51.464;-2.566;2024-01-25T09:21:42;4.37;;;1.90;;
10491;SDS011;5293;51.464;-2.566;2024-01-25T09:24:08;4.80;;;2.30;;
10491;SDS011;5293;51.464;-2.566;2024-01-25T09:26:33;6.13;;;1.93;;
10491;SDS011;5293;51.464;-2.566;2024-01-25T09:28:59;8.60;;;2.20;;
10491;SDS011;5293;51.464;-2.566;2024-01-25T09:31:25;4.77;;;2.20;;
10491;SDS011;5293;51.464;-2.566;2024-01-25T09:33:50;6.33;;;2.23;;
10491;SDS011;5293;51.464;-2.566;2024-01-25T09:36:16;4.03;;;2.10;;
10491;SDS011;5293;51.464;-2.566;2024-01-25T09:38:42;14.60;;;2.70;;
10491;SDS011;5293;51.464;-2.566;2024-01-25T09:41:08;7.33;;;2.20;;
10491;SDS011;5293;51.464;-2.566;2024-01-25T09:43:34;3.13;;;1.57;;
10491;SDS011;5293;51.464;-2.566;2024-01-25T09:46:01;3.77;;;1.90;;
10491;SDS011;5293;51.464;-2.566;2024-01-25T09:48:27;4.97;;;1.93;;
10491;SDS011;5293;51.464;-2.566;2024-01-25T09:50:54;3.73;;;1.40;;
10491;SDS011;5293;51.464;-2.566;2024-01-25T09:53:21;5.60;;;1.60;;
10491;SDS011;5293;51.464;-2.566;2024-01-25T09:56:09;5.83;;;2.07;;
10491;SDS011;5293;51.464;-2.566;2024-01-25T09:58:41;6.23;;;1.73;;
10491;SDS011;5293;51.464;-2.566;2024-01-25T10:01:09;9.83;;;2.17;;
10491;SDS011;5293;51.464;-2.566;2024-01-25T10:03:37;3.67;;;1.50;;
10491;SDS011;5293;51.464;-2.566;2024-01-25T10:06:10;7.80;;;1.90;;
10491;SDS011;5293;51.464;-2.566;2024-01-25T10:08:36;3.50;;;1.70;;
10491;SDS011;5293;51.464;-2.566;2024-01-25T10:11:02;4.63;;;1.63;;
10491;SDS011;5293;51.464;-2.566;2024-01-25T10:13:28;7.30;;;2.03;;
10491;SDS011;5293;51.464;-2.566;2024-01-25T10:15:55;3.53;;;2.00;;
10491;SDS011;5293;51.464;-2.566;2024-01-25T10:18:25;4.67;;;2.10;;
10491;SDS011;5293;51.464;-2.566;2024-01-25T10:20:52;4.60;;;1.43;;
10491;SDS011;5293;51.464;-2.566;2024-01-25T10:23:19;6.03;;;1.57;;
10491;SDS011;5293;51.464;-2.566;2024-01-25T10:25:46;7.70;;;1.80;;
10491;SDS011;5293;51.464;-2.566;2024-01-25T10:28:11;4.80;;;1.60;;
10491;SDS011;5293;51.464;-2.566;2024-01-25T10:30:37;2.87;;;1.63;;
10491;SDS011;5293;51.464;-2.566;2024-01-25T10:33:03;6.90;;;1.50;;
10491;SDS011;5293;51.464;-2.566;2024-01-25T10:35:30;6.37;;;1.43;;
10491;SDS011;5293;51.464;-2.566;2024-01-25T10:37:57;9.77;;;1.70;;
10491;SDS011;5293;51.464;-2.566;2024-01-25T10:40:22;14.60;;;2.70;;
10491;SDS011;5293;51.464;-2.566;2024-01-25T10:42:49;9.37;;;2.00;;
10491;SDS011;5293;51.464;-2.566;2024-01-25T10:45:15;9.23;;;1.87;;
10491;SDS011;5293;51.464;-2.566;2024-01-25T10:47:41;7.77;;;1.90;;
10491;SDS011;5293;51.464;-2.566;2024-01-25T10:50:07;8.63;;;2.60;;
10491;SDS011;5293;51.464;-2.566;2024-01-25T10:52:36;5.47;;;1.67;;
10491;SDS011;5293;51.464;-2.566;2024-01-25T10:55:03;7.00;;;1.60;;
10491;SDS011;5293;51.464;-2.566;2024-01-25T10:57:37;6.70;;;2.10;;
10491;SDS011;5293;51.464;-2.566;2024-01-25T11:00:08;8.70;;;1.70;;
10491;SDS011;5293;51.464;-2.566;2024-01-25T11:02:36;7.90;;;1.80;;
10491;SDS011;5293;51.464;-2.566;2024-01-25T11:05:06;6.33;;;1.57;;
10491;SDS011;5293;51.464;-2.566;2024-01-25T11:07:46;6.47;;;2.33;;
10491;SDS011;5293;51.464;-2.566;2024-01-25T11:10:14;7.43;;;1.73;;
10491;SDS011;5293;51.464;-2.566;2024-01-25T11:12:48;7.20;;;1.67;;
10491;SDS011;5293;51.464;-2.566;2024-01-25T11:15:17;5.57;;;2.00;;
10491;SDS011;5293;51.464;-2.566;2024-01-25T11:17:53;9.23;;;2.00;;
10491;SDS011;5293;51.464;-2.566;2024-01-25T11:20:23;8.40;;;1.77;;
10491;SDS011;5293;51.464;-2.566;2024-01-25T11:23:01;6.27;;;1.93;;
10491;SDS011;5293;51.464;-2.566;2024-01-25T11:25:31;8.20;;;1.77;;
10491;SDS011;5293;51.464;-2.566;2024-01-25T11:28:00;4.03;;;1.50;;
10491;SDS011;5293;51.464;-2.566;2024-01-25T11:30:27;8.03;;;1.97;;
10491;SDS011;5293;51.464;-2.566;2024-01-25T11:32:54;9.47;;;2.30;;
10491;SDS011;5293;51.464;-2.566;2024-01-25T11:35:21;3.93;;;1.53;;
10491;SDS011;5293;51.464;-2.566;2024-01-25T11:37:47;5.30;;;1.63;;
10491;SDS011;5293;51.464;-2.566;2024-01-25T11:40:14;9.50;;;2.10;;
10491;SDS011;5293;51.464;-2.566;2024-01-25T11:42:44;5.07;;;1.50;;
10491;SDS011;5293;51.464;-2.566;2024-01-25T11:45:13;4.60;;;1.70;;
10491;SDS011;5293;51.464;-2.566;2024-01-25T11:47:40;9.40;;;1.60;;
10491;SDS011;5293;51.464;-2.566;2024-01-25T11:50:07;8.60;;;1.87;;
10491;SDS011;5293;51.464;-2.566;2024-01-25T11:52:34;5.77;;;1.70;;
10491;SDS011;5293;51.464;-2.566;2024-01-25T11:55:07;8.23;;;1.80;;
10491;SDS011;5293;51.464;-2.566;2024-01-25T11:57:35;6.73;;;2.00;;
10491;SDS011;5293;51.464;-2.566;2024-01-25T12:00:03;4.27;;;1.30;;
10491;SDS011;5293;51.464;-2.566;2024-01-25T12:02:30;8.63;;;1.67;;
10491;SDS011;5293;51.464;-2.566;2024-01-25T12:04:57;4.40;;;1.10;;
10491;SDS011;5293;51.464;-2.566;2024-01-25T12:07:22;5.13;;;1.43;;
10491;SDS011;5293;51.464;-2.566;2024-01-25T12:10:05;4.60;;;2.03;;
10491;SDS011;5293;51.464;-2.566;2024-01-25T12:12:32;7.83;;;1.50;;
10491;SDS011;5293;51.464;-2.566;2024-01-25T12:15:04;6.17;;;1.40;;
10491;SDS011;5293;51.464;-2.566;2024-01-25T12:17:30;3.23;;;1.30;;
10491;SDS011;5293;51.464;-2.566;2024-01-25T12:19:57;3.03;;;1.60;;
10491;SDS011;5293;51.464;-2.566;2024-01-25T12:22:24;9.10;;;1.73;;
10491;SDS011;5293;51.464;-2.566;2024-01-25T12:24:55;6.33;;;1.30;;
10491;SDS011;5293;51.464;-2.566;2024-01-25T12:27:22;4.77;;;1.57;;
10491;SDS011;5293;51.464;-2.566;2024-01-25T12:29:50;3.83;;;1.13;;
10491;SDS011;5293;51.464;-2.566;2024-01-25T12:32:18;3.37;;;1.10;;
10491;SDS011;5293;51.464;-2.566;2024-01-25T12:34:56;7.00;;;1.80;;
10491;SDS011;5293;51.464;-2.566;2024-01-25T12:37:25;3.67;;;1.07;;
10491;SDS011;5293;51.464;-2.566;2024-01-25T12:39:51;3.60;;;1.30;;
10491;SDS011;5293;51.464;-2.566;2024-01-25T12:42:18;3.33;;;1.30;;
10491;SDS011;5293;51.464;-2.566;2024-01-25T12:44:44;4.03;;;1.40;;
10491;SDS011;5293;51.464;-2.566;2024-01-25T12:47:13;2.10;;;1.10;;
10491;SDS011;5293;51.464;-2.566;2024-01-25T12:49:40;2.90;;;1.43;;
10491;SDS011;5293;51.464;-2.566;2024-01-25T12:52:07;4.73;;;1.50;;
10491;SDS011;5293;51.464;-2.566;2024-01-25T12:54:36;9.23;;;3.03;;
10491;SDS011;5293;51.464;-2.566;2024-01-25T12:57:05;14.33;;;6.17;;
10491;SDS011;5293;51.464;-2.566;2024-01-25T12:59:32;6.07;;;2.67;;
10491;SDS011;5293;51.464;-2.566;2024-01-25T13:01:59;6.77;;;3.13;;
10491;SDS011;5293;51.464;-2.566;2024-01-25T13:04:25;6.10;;;2.70;;
10491;SDS011;5293;51.464;-2.566;2024-01-25T13:06:52;6.70;;;1.83;;
10491;SDS011;5293;51.464;-2.566;2024-01-25T13:09:19;6.07;;;1.63;;
10491;SDS011;5293;51.464;-2.566;2024-01-25T13:11:46;4.00;;;1.47;;
10491;SDS011;5293;51.464;-2.566;2024-01-25T13:14:12;3.27;;;1.27;;
10491;SDS011;5293;51.464;-2.566;2024-01-25T13:16:38;1.83;;;1.33;;
10491;SDS011;5293;51.464;-2.566;2024-01-25T13:19:04;4.80;;;1.50;;
10491;SDS011;5293;51.464;-2.566;2024-01-25T13:21:29;4.43;;;1.23;;
10491;SDS011;5293;51.464;-2.566;2024-01-25T13:23:56;2.83;;;1.13;;
10491;SDS011;5293;51.464;-2.566;2024-01-25T13:26:22;3.00;;;1.83;;
10491;SDS011;5293;51.464;-2.566;2024-01-25T13:28:47;5.93;;;1.83;;
10491;SDS011;5293;51.464;-2.566;2024-01-25T13:31:13;3.63;;;1.50;;
10491;SDS011;5293;51.464;-2.566;2024-01-25T13:33:39;7.73;;;1.53;;
10491;SDS011;5293;51.464;-2.566;2024-01-25T13:36:04;4.00;;;1.50;;
10491;SDS011;5293;51.464;-2.566;2024-01-25T13:38:34;4.53;;;1.67;;
10491;SDS011;5293;51.464;-2.566;2024-01-25T13:41:00;4.60;;;1.47;;
10491;SDS011;5293;51.464;-2.566;2024-01-25T13:43:25;7.40;;;1.50;;
10491;SDS011;5293;51.464;-2.566;2024-01-25T13:45:51;4.93;;;1.50;;
10491;SDS011;5293;51.464;-2.566;2024-01-25T13:48:17;5.17;;;1.93;;
10491;SDS011;5293;51.464;-2.566;2024-01-25T13:50:44;3.17;;;1.47;;
10491;SDS011;5293;51.464;-2.566;2024-01-25T13:53:09;4.70;;;1.63;;
10491;SDS011;5293;51.464;-2.566;2024-01-25T13:55:35;4.90;;;1.50;;
10491;SDS011;5293;51.464;-2.566;2024-01-25T13:58:01;9.00;;;1.90;;
10491;SDS011;5293;51.464;-2.566;2024-01-25T14:00:27;4.70;;;1.70;;
10491;SDS011;5293;51.464;-2.566;2024-01-25T14:02:53;4.93;;;1.97;;
10491;SDS011;5293;51.464;-2.566;2024-01-25T14:05:19;6.20;;;2.00;;
10491;SDS011;5293;51.464;-2.566;2024-01-25T14:07:44;6.63;;;1.57;;
10491;SDS011;5293;51.464;-2.566;2024-01-25T14:10:10;6.03;;;1.43;;
10491;SDS011;5293;51.464;-2.566;2024-01-25T14:12:36;2.13;;;1.40;;
10491;SDS011;5293;51.464;-2.566;2024-01-25T14:15:01;4.30;;;1.80;;
10491;SDS011;5293;51.464;-2.566;2024-01-25T14:17:27;4.73;;;1.53;;
10491;SDS011;5293;51.464;-2.566;2024-01-25T14:19:53;4.87;;;1.37;;
10491;SDS011;5293;51.464;-2.566;2024-01-25T14:22:19;3.77;;;1.47;;
10491;SDS011;5293;51.464;-2.566;2024-01-25T14:24:45;4.30;;;1.47;;
10491;SDS011;5293;51.464;-2.566;2024-01-25T14:27:11;3.43;;;1.10;;
10491;SDS011;5293;51.464;-2.566;2024-01-25T14:29:37;2.97;;;1.13;;
10491;SDS011;5293;51.464;-2.566;2024-01-25T14:32:03;4.90;;;1.37;;
10491;SDS011;5293;51.464;-2.566;2024-01-25T14:34:29;4.20;;;1.27;;
10491;SDS011;5293;51.464;-2.566;2024-01-25T14:36:54;7.50;;;1.83;;
10491;SDS011;5293;51.464;-2.566;2024-01-25T14:39:20;4.93;;;2.00;;